createdAt,value
2019-04-21T00:01:59.655Z,102045.49
2019-04-21T00:04:43.279Z,102043.81
2019-04-21T00:07:25.091Z,102040.79
2019-04-21T00:10:02.573Z,102046.01
2019-04-21T00:12:28.325Z,102046.66
2019-04-21T00:14:57.909Z,102041.61
2019-04-21T00:17:23.115Z,102044.14
2019-04-21T00:20:09.124Z,102042.07
2019-04-21T00:22:43.138Z,102044.85
2019-04-21T00:25:20.997Z,102041.83
2019-04-21T00:27:50.173Z,102039.84
2019-04-21T00:30:38.252Z,102041.19
2019-04-21T00:32:53.967Z,102036.59
2019-04-21T00:35:21.081Z,102033.36
2019-04-21T00:38:13.076Z,102033.36
2019-04-21T00:40:52.120Z,102027.73
2019-04-21T00:43:15.164Z,102025.20
2019-04-21T00:45:44.914Z,102022.41
2019-04-21T00:48:29.841Z,102022.95
2019-04-21T00:51:21.158Z,102017.42
2019-04-21T00:53:51.648Z,102013.53
2019-04-21T00:56:21.293Z,102012.43
2019-04-21T00:58:56.078Z,102015.16
2019-04-21T01:01:24.972Z,102011.91
2019-04-21T01:04:02.204Z,102008.67
2019-04-21T01:06:38.143Z,102003.77
2019-04-21T01:09:02.664Z,102001.08
2019-04-21T01:11:44.244Z,102003.77
2019-04-21T01:14:25.882Z,102010.31
2019-04-21T01:16:51.385Z,102003.23
2019-04-21T01:19:17.262Z,102003.31
2019-04-21T01:21:34.400Z,102004.77
2019-04-21T01:24:13.385Z,102007.25
2019-04-21T01:26:52.518Z,102002.23
2019-04-21T01:29:39.028Z,102007.08
2019-04-21T01:32:14.603Z,102005.47
2019-04-21T01:34:47.063Z,102004.61
2019-04-21T01:37:14.548Z,102000.44
2019-04-21T01:39:58.475Z,101999.92
2019-04-21T01:44:58.272Z,102003.88
2019-04-21T01:47:26.300Z,102001.11
2019-04-21T01:49:56.554Z,102005.54
2019-04-21T01:52:47.334Z,102001.25
2019-04-21T01:55:20.268Z,101999.59
2019-04-21T01:58:09.740Z,101991.81
2019-04-21T02:01:10.215Z,101983.24
2019-04-21T02:03:54.417Z,101983.86
2019-04-21T02:06:22.896Z,101985.69
2019-04-21T02:08:48.800Z,101988.09
2019-04-21T02:11:30.025Z,101979.78
2019-04-21T02:14:31.136Z,101983.89
2019-04-21T02:16:34.307Z,101982.33
2019-04-21T02:19:08.225Z,101985.76
2019-04-21T02:21:36.974Z,101991.17
2019-04-21T02:24:23.862Z,101987.48
2019-04-21T02:26:54.104Z,101986.95
2019-04-21T02:29:26.703Z,101984.68
2019-04-21T02:32:10.576Z,101986.88
2019-04-21T02:34:49.036Z,101992.57
2019-04-21T02:39:51.389Z,101988.47
2019-04-21T02:42:18.687Z,101986.41
2019-04-21T02:45:06.652Z,101979.91
2019-04-21T02:52:46.294Z,101977.16
2019-04-21T02:55:06.352Z,101980.16
2019-04-21T03:00:40.581Z,101980.25
2019-04-21T03:03:22.949Z,101977.57
2019-04-21T03:06:04.006Z,101972.91
2019-04-21T03:08:43.855Z,101975.14
2019-04-21T03:13:44.528Z,101965.97
2019-04-21T03:18:50.389Z,101971.05
2019-04-21T03:24:05.417Z,101967.68
2019-04-21T03:26:36.380Z,101964.95
2019-04-21T03:29:03.656Z,101968.77
2019-04-21T03:34:41.067Z,101969.00
2019-04-21T03:39:11.333Z,101973.71
2019-04-21T03:44:24.703Z,101966.23
2019-04-21T03:47:02.137Z,101966.38
2019-04-21T03:52:19.855Z,101954.52
2019-04-21T03:54:49.158Z,101958.02
2019-04-21T03:57:17.799Z,101965.85
2019-04-21T03:59:47.356Z,101968.89
2019-04-21T04:02:47.220Z,101973.35
2019-04-21T04:05:10.970Z,101972.13
2019-04-21T04:07:59.080Z,101969.83
2019-04-21T04:10:22.904Z,101977.97
2019-04-21T04:12:57.813Z,101978.00
2019-04-21T04:15:39.596Z,101976.63
2019-04-21T04:18:08.755Z,101975.52
2019-04-21T04:20:43.816Z,101978.19
2019-04-21T04:23:09.804Z,101975.80
2019-04-21T04:25:49.431Z,101968.08
2019-04-21T04:28:23.029Z,101964.07
2019-04-21T04:30:52.058Z,101966.67
2019-04-21T04:33:38.411Z,101963.92
2019-04-21T04:36:31.111Z,101957.91
2019-04-21T04:38:39.558Z,101962.72
2019-04-21T04:41:28.499Z,101963.98
2019-04-21T04:44:00.937Z,101967.88
2019-04-21T04:46:26.726Z,101960.77
2019-04-21T04:49:01.753Z,101960.72
2019-04-21T04:51:48.309Z,101961.27
2019-04-21T04:54:32.437Z,101961.00
2019-04-21T04:56:38.360Z,101965.02
2019-04-21T05:02:08.698Z,101968.77
2019-04-21T05:04:30.259Z,101972.50
2019-04-21T05:06:59.946Z,101965.97
2019-04-21T05:12:03.533Z,101961.46
2019-04-21T05:14:39.037Z,101973.11
2019-04-21T05:17:14.116Z,101972.08
2019-04-21T05:19:53.876Z,101971.08
2019-04-21T05:24:44.236Z,101966.59
2019-04-21T05:27:32.086Z,101968.26
2019-04-21T05:30:17.598Z,101961.42
2019-04-21T05:32:58.406Z,101965.89
2019-04-21T05:35:45.207Z,101959.41
2019-04-21T05:38:21.422Z,101956.22
2019-04-21T05:40:48.357Z,101955.45
2019-04-21T05:43:32.694Z,101953.28
2019-04-21T05:46:06.018Z,101946.59
2019-04-21T05:48:39.802Z,101946.86
2019-04-21T05:51:14.886Z,101950.84
2019-04-21T05:53:48.052Z,101954.98
2019-04-21T05:56:22.946Z,101952.70
2019-04-21T05:59:00.174Z,101953.19
2019-04-21T06:01:44.572Z,101950.98
2019-04-21T06:04:03.925Z,101956.84
2019-04-21T06:06:43.577Z,101957.85
2019-04-21T06:09:14.605Z,101954.59
2019-04-21T06:11:45.914Z,101952.99
2019-04-21T06:14:21.751Z,101953.26
2019-04-21T06:16:57.000Z,101948.41
2019-04-21T06:19:30.966Z,101948.41
2019-04-21T06:21:57.524Z,101951.77
2019-04-21T06:24:43.399Z,101952.34
2019-04-21T06:27:11.581Z,101951.94
2019-04-21T06:29:46.738Z,101963.05
2019-04-21T06:35:07.300Z,101960.08
2019-04-21T06:42:34.225Z,101956.16
2019-04-21T06:45:27.564Z,101961.02
2019-04-21T06:47:42.326Z,101954.31
2019-04-21T06:50:19.056Z,101954.62
2019-04-21T06:53:00.790Z,101950.59
2019-04-21T06:55:20.377Z,101945.51
2019-04-21T06:57:51.615Z,101941.94
2019-04-21T07:00:34.801Z,101943.31
2019-04-21T07:03:17.106Z,101947.11
2019-04-21T07:05:42.473Z,101944.89
2019-04-21T07:08:21.935Z,101941.23
2019-04-21T07:10:45.084Z,101942.39
2019-04-21T07:13:15.376Z,101939.40
2019-04-21T07:15:53.297Z,101940.83
2019-04-21T07:18:31.082Z,101932.73
2019-04-21T07:21:00.077Z,101936.09
2019-04-21T07:23:38.641Z,101934.53
2019-04-21T07:26:08.840Z,101928.23
2019-04-21T07:28:46.336Z,101928.69
2019-04-21T07:31:31.709Z,101929.36
2019-04-21T07:36:30.940Z,101928.71
2019-04-21T07:38:49.889Z,101925.10
2019-04-21T07:41:18.604Z,101920.64
2019-04-21T07:43:55.675Z,101918.17
2019-04-21T07:46:31.370Z,101912.86
2019-04-21T07:49:36.999Z,101912.03
2019-04-21T07:52:33.537Z,101909.84
2019-04-21T07:55:16.732Z,101902.70
2019-04-21T07:57:33.078Z,101905.03
2019-04-21T08:00:20.586Z,101906.80
2019-04-21T08:02:40.433Z,101902.98
2019-04-21T08:07:52.004Z,101912.91
2019-04-21T08:10:23.243Z,101912.89
2019-04-21T08:12:54.459Z,101903.39
2019-04-21T08:15:38.645Z,101897.53
2019-04-21T08:18:03.701Z,101896.12
2019-04-21T08:20:36.302Z,101895.05
2019-04-21T08:23:13.238Z,101884.98
2019-04-21T08:25:53.012Z,101884.98
2019-04-21T08:28:11.916Z,101877.29
2019-04-21T08:30:47.791Z,101877.29
2019-04-21T08:33:33.754Z,101868.68
2019-04-21T08:36:13.975Z,101847.13
2019-04-21T08:38:34.451Z,101868.75
2019-04-21T08:46:13.727Z,101861.09
2019-04-21T08:48:54.259Z,101862.58
2019-04-21T08:51:50.424Z,101859.38
2019-04-21T08:53:53.489Z,101858.25
2019-04-21T08:56:52.635Z,101853.72
2019-04-21T08:59:51.825Z,101844.97
2019-04-21T09:02:40.284Z,101844.97
2019-04-21T09:05:15.438Z,101851.11
2019-04-21T09:07:47.587Z,101848.36
2019-04-21T09:10:17.657Z,101849.80
2019-04-21T09:12:49.059Z,101838.73
2019-04-21T09:15:19.093Z,101840.59
2019-04-21T09:17:48.380Z,101837.41
2019-04-21T09:20:32.702Z,101836.52
2019-04-21T09:23:06.401Z,101828.11
2019-04-21T09:25:40.573Z,101819.30
2019-04-21T09:28:12.604Z,101808.05
2019-04-21T09:30:26.391Z,101799.80
2019-04-21T09:33:00.198Z,101804.19
2019-04-21T09:35:31.903Z,101796.66
2019-04-21T09:38:17.175Z,101793.22
2019-04-21T09:40:44.122Z,101789.41
2019-04-21T09:43:13.435Z,101790.47
2019-04-21T09:45:45.311Z,101785.86
2019-04-21T09:48:20.531Z,101791.94
2019-04-21T09:50:50.817Z,101787.60
2019-04-21T09:53:29.469Z,101780.13
2019-04-21T09:56:01.040Z,101775.25
2019-04-21T09:58:37.921Z,101769.94
2019-04-21T10:01:12.107Z,101767.02
2019-04-21T10:03:43.416Z,101763.35
2019-04-21T10:06:11.247Z,101762.09
2019-04-21T10:08:44.653Z,101763.57
2019-04-21T10:11:16.566Z,101764.45
2019-04-21T10:13:48.803Z,101758.91
2019-04-21T10:16:42.893Z,101755.22
2019-04-21T10:19:15.279Z,101753.21
2019-04-21T10:21:47.803Z,101751.38
2019-04-21T10:24:20.172Z,101746.25
2019-04-21T10:26:53.370Z,101741.06
2019-04-21T10:29:29.442Z,101731.78
2019-04-21T10:31:59.886Z,101729.34
2019-04-21T10:34:32.743Z,101727.48
2019-04-21T10:37:04.959Z,101720.75
2019-04-21T10:39:37.785Z,101711.60
2019-04-21T10:42:11.194Z,101720.16
2019-04-21T10:44:43.282Z,101710.70
2019-04-21T10:47:16.459Z,101702.98
2019-04-21T10:49:48.714Z,101702.31
2019-04-21T10:52:49.079Z,101690.22
2019-04-21T10:55:41.750Z,101687.83
2019-04-21T10:58:20.372Z,101686.72
2019-04-21T11:01:00.051Z,101680.31
2019-04-21T11:03:40.521Z,101672.77
2019-04-21T11:06:14.749Z,101667.63
2019-04-21T11:08:50.462Z,101671.75
2019-04-21T11:11:21.786Z,101665.96
2019-04-21T11:13:54.887Z,101655.33
2019-04-21T11:16:27.279Z,101650.31
2019-04-21T11:18:59.988Z,101652.92
2019-04-21T11:21:31.958Z,101650.80
2019-04-21T11:24:04.166Z,101642.41
2019-04-21T11:26:36.442Z,101644.23
2019-04-21T11:29:08.609Z,101638.59
2019-04-21T11:31:41.083Z,101635.83
2019-04-21T11:34:13.558Z,101632.22
2019-04-21T11:36:45.928Z,101640.20
2019-04-21T11:39:33.530Z,101638.48
2019-04-21T11:41:59.653Z,101639.86
2019-04-21T11:44:33.029Z,101628.91
2019-04-21T11:47:08.308Z,101622.43
2019-04-21T11:49:41.424Z,101627.55
2019-04-21T11:52:13.458Z,101616.49
2019-04-21T11:54:45.228Z,101622.09
2019-04-21T11:57:22.707Z,101612.70
2019-04-21T11:59:51.412Z,101616.84
2019-04-21T12:02:23.724Z,101619.17
2019-04-21T12:04:55.565Z,101616.60
2019-04-21T12:07:27.626Z,101613.33
2019-04-21T12:09:59.949Z,101600.84
2019-04-21T12:12:33.490Z,101596.20
2019-04-21T12:15:06.113Z,101594.97
2019-04-21T12:17:39.490Z,101595.59
2019-04-21T12:20:12.737Z,101596.34
2019-04-21T12:22:45.344Z,101581.47
2019-04-21T12:25:18.852Z,101586.69
2019-04-21T12:27:51.987Z,101582.16
2019-04-21T12:30:25.047Z,101583.14
2019-04-21T12:33:22.349Z,101574.50
2019-04-21T12:35:55.659Z,101566.55
2019-04-21T12:38:36.402Z,101556.52
2019-04-21T12:41:02.327Z,101565.77
2019-04-21T12:43:35.263Z,101555.21
2019-04-21T12:46:07.676Z,101558.23
2019-04-21T12:48:40.022Z,101551.98
2019-04-21T12:51:12.251Z,101547.00
2019-04-21T12:53:45.580Z,101543.59
2019-04-21T12:56:17.769Z,101540.16
2019-04-21T12:58:49.622Z,101538.47
2019-04-21T13:01:21.413Z,101525.22
2019-04-21T13:03:53.316Z,101527.66
2019-04-21T13:06:25.500Z,101527.96
2019-04-21T13:09:03.369Z,101525.46
2019-04-21T13:11:31.044Z,101520.20
2019-04-21T13:14:04.047Z,101517.98
2019-04-21T13:16:37.089Z,101519.64
2019-04-21T13:19:09.432Z,101514.91
2019-04-21T13:21:42.441Z,101505.86
2019-04-21T13:24:15.910Z,101494.25
2019-04-21T13:26:53.656Z,101488.38
2019-04-21T13:29:21.390Z,101488.47
2019-04-21T13:31:54.277Z,101484.89
2019-04-21T13:34:26.445Z,101488.28
2019-04-21T13:36:59.306Z,101472.75
2019-04-21T13:40:13.128Z,101467.13
2019-04-21T13:42:34.183Z,101465.61
2019-04-21T13:45:02.426Z,101457.76
2019-04-21T13:47:34.654Z,101456.75
2019-04-21T13:50:08.732Z,101463.75
2019-04-21T13:52:40.905Z,101456.24
2019-04-21T13:55:14.139Z,101449.94
2019-04-21T13:57:46.488Z,101450.78
2019-04-21T14:00:19.409Z,101449.42
2019-04-21T14:02:52.487Z,101451.67
2019-04-21T14:05:24.594Z,101429.56
2019-04-21T14:07:57.930Z,101426.09
2019-04-21T14:10:31.350Z,101422.47
2019-04-21T14:13:04.705Z,101419.39
2019-04-21T14:15:37.776Z,101418.75
2019-04-21T14:18:10.899Z,101417.88
2019-04-21T14:20:42.991Z,101411.00
2019-04-21T14:23:24.336Z,101412.66
2019-04-21T14:25:48.435Z,101413.00
2019-04-21T14:28:20.236Z,101398.20
2019-04-21T14:30:52.533Z,101398.23
2019-04-21T14:33:25.640Z,101399.91
2019-04-21T14:35:58.896Z,101399.07
2019-04-21T14:38:32.288Z,101396.88
2019-04-21T14:41:04.106Z,101398.31
2019-04-21T14:43:36.244Z,101379.74
2019-04-21T14:46:21.668Z,101388.16
2019-04-21T14:49:17.490Z,101387.33
2019-04-21T14:52:11.223Z,101376.19
2019-04-21T14:54:54.547Z,101375.48
2019-04-21T14:57:27.353Z,101365.06
2019-04-21T15:00:00.603Z,101369.67
2019-04-21T15:02:33.971Z,101368.31
2019-04-21T15:05:07.165Z,101360.61
2019-04-21T15:07:39.352Z,101359.20
2019-04-21T15:10:17.930Z,101355.53
2019-04-21T15:12:45.645Z,101356.20
2019-04-21T15:15:18.071Z,101353.33
2019-04-21T15:17:50.021Z,101340.05
2019-04-21T15:20:23.403Z,101339.72
2019-04-21T15:22:56.555Z,101334.47
2019-04-21T15:25:28.432Z,101335.13
2019-04-21T15:28:01.190Z,101324.41
2019-04-21T15:30:34.320Z,101331.08
2019-04-21T15:33:06.482Z,101324.64
2019-04-21T15:35:39.091Z,101322.86
2019-04-21T15:38:11.957Z,101314.96
2019-04-21T15:40:50.578Z,101311.48
2019-04-21T15:43:18.269Z,101309.13
2019-04-21T15:45:50.762Z,101312.59
2019-04-21T15:48:23.971Z,101305.12
2019-04-21T15:50:56.761Z,101298.19
2019-04-21T15:53:31.868Z,101301.63
2019-04-21T15:56:11.028Z,101297.69
2019-04-21T15:59:00.989Z,101294.48
2019-04-21T16:01:43.928Z,101292.24
2019-04-21T16:04:16.820Z,101292.27
2019-04-21T16:06:49.894Z,101290.66
2019-04-21T16:09:25.276Z,101290.54
2019-04-21T16:11:55.797Z,101283.67
2019-04-21T16:14:29.028Z,101288.01
2019-04-21T16:17:01.218Z,101273.44
2019-04-21T16:19:34.177Z,101272.12
2019-04-21T16:22:06.449Z,101260.58
2019-04-21T16:24:39.871Z,101265.45
2019-04-21T16:27:12.678Z,101259.55
2019-04-21T16:29:45.786Z,101262.39
2019-04-21T16:32:19.779Z,101257.77
2019-04-21T16:34:59.237Z,101260.16
2019-04-21T16:37:25.697Z,101247.48
2019-04-21T16:39:57.517Z,101246.95
2019-04-21T16:42:30.037Z,101254.30
2019-04-21T16:45:03.167Z,101247.48
2019-04-21T16:47:35.878Z,101248.29
2019-04-21T16:50:09.898Z,101247.61
2019-04-21T16:52:50.002Z,101246.16
2019-04-21T16:55:37.072Z,101239.09
2019-04-21T16:58:43.037Z,101239.28
2019-04-21T17:01:29.222Z,101235.62
2019-04-21T17:04:00.474Z,101234.71
2019-04-21T17:06:33.227Z,101230.00
2019-04-21T17:09:06.726Z,101225.32
2019-04-21T17:11:40.124Z,101226.05
2019-04-21T17:14:33.124Z,101222.59
2019-04-21T17:17:09.301Z,101213.72
2019-04-21T17:19:27.112Z,101216.98
2019-04-21T17:21:53.113Z,101219.06
2019-04-21T17:24:26.447Z,101212.91
2019-04-21T17:26:59.567Z,101222.55
2019-04-21T17:29:32.507Z,101218.30
2019-04-21T17:32:07.760Z,101216.78
2019-04-21T17:34:41.300Z,101216.94
2019-04-21T17:37:13.135Z,101222.22
2019-04-21T17:39:45.113Z,101215.55
2019-04-21T17:42:26.476Z,101219.48
2019-04-21T17:44:51.111Z,101215.55
2019-04-21T17:47:34.121Z,101216.89
2019-04-21T17:50:15.686Z,101214.31
2019-04-21T17:52:59.043Z,101221.45
2019-04-21T17:55:31.342Z,101223.17
2019-04-21T17:58:16.283Z,101220.76
2019-04-21T18:03:37.463Z,101225.64
2019-04-21T18:05:59.603Z,101218.52
2019-04-21T18:08:38.574Z,101221.36
2019-04-21T18:11:01.861Z,101221.94
2019-04-21T18:13:26.739Z,101231.44
2019-04-21T18:16:10.733Z,101232.51
2019-04-21T18:18:32.959Z,101235.28
2019-04-21T18:21:12.426Z,101231.89
2019-04-21T18:23:57.407Z,101231.44
2019-04-21T18:26:30.352Z,101235.06
2019-04-21T18:28:57.174Z,101229.92
2019-04-21T18:31:33.920Z,101233.95
2019-04-21T18:34:30.350Z,101237.52
2019-04-21T18:37:05.476Z,101243.98
2019-04-21T18:40:00.008Z,101238.42
2019-04-21T18:42:55.077Z,101241.33
2019-04-21T18:45:56.831Z,101242.53
2019-04-21T18:48:28.183Z,101249.05
2019-04-21T18:51:13.907Z,101250.05
2019-04-21T18:54:14.900Z,101256.05
2019-04-21T18:56:31.622Z,101255.20
2019-04-21T18:59:04.431Z,101255.48
2019-04-21T19:01:38.448Z,101254.77
2019-04-21T19:04:15.499Z,101259.52
2019-04-21T19:07:02.602Z,101257.28
2019-04-21T19:09:56.800Z,101257.85
2019-04-21T19:12:16.784Z,101261.98
2019-04-21T19:14:40.092Z,101256.63
2019-04-21T19:18:11.179Z,101254.20
2019-04-21T19:19:54.346Z,101252.69
2019-04-21T19:22:28.125Z,101261.28
2019-04-21T19:24:59.490Z,101259.41
2019-04-21T19:27:31.074Z,101259.05
2019-04-21T19:30:13.573Z,101258.40
2019-04-21T19:32:33.593Z,101259.95
2019-04-21T19:34:59.879Z,101258.02
2019-04-21T19:37:38.854Z,101265.09
2019-04-21T19:40:14.174Z,101265.64
2019-04-21T19:42:46.314Z,101263.49
2019-04-21T19:45:22.470Z,101263.41
2019-04-21T19:48:03.944Z,101271.52
2019-04-21T19:50:40.775Z,101271.88
2019-04-21T19:53:03.397Z,101271.72
2019-04-21T19:55:25.848Z,101279.59
2019-04-21T19:57:58.890Z,101279.11
2019-04-21T20:00:31.009Z,101279.23
2019-04-21T20:03:06.216Z,101282.38
2019-04-21T20:05:45.337Z,101282.02
2019-04-21T20:08:31.945Z,101282.72
2019-04-21T20:11:03.919Z,101287.63
2019-04-21T20:16:16.181Z,101290.17
2019-04-21T20:18:36.853Z,101291.59
2019-04-21T20:21:01.884Z,101290.02
2019-04-21T20:23:35.945Z,101292.72
2019-04-21T20:26:09.938Z,101292.16
2019-04-21T20:28:48.861Z,101292.11
2019-04-21T20:31:31.584Z,101287.68
2019-04-21T20:34:13.482Z,101286.13
2019-04-21T20:36:42.898Z,101289.62
2019-04-21T20:39:05.805Z,101295.17
2019-04-21T20:41:42.014Z,101284.22
2019-04-21T20:44:21.587Z,101291.63
2019-04-21T20:46:55.448Z,101288.60
2019-04-21T20:49:23.161Z,101286.30
2019-04-21T20:52:07.154Z,101287.05
2019-04-21T20:54:37.772Z,101291.02
2019-04-21T20:57:24.175Z,101292.41
2019-04-21T20:59:38.929Z,101285.78
2019-04-21T21:02:17.658Z,101282.60
2019-04-21T21:04:43.439Z,101280.56
2019-04-21T21:07:36.391Z,101291.19
2019-04-21T21:10:00.147Z,101282.06
2019-04-21T21:12:37.139Z,101285.16
2019-04-21T21:14:57.548Z,101293.58
2019-04-21T21:17:49.920Z,101297.28
2019-04-21T21:20:16.604Z,101289.69
2019-04-21T21:22:42.359Z,101292.04
2019-04-21T21:25:25.565Z,101291.08
2019-04-21T21:27:46.747Z,101291.08
2019-04-21T21:30:23.879Z,101292.80
2019-04-21T21:33:04.561Z,101293.67
2019-04-21T21:35:29.590Z,101287.16
2019-04-21T21:38:06.702Z,101287.20
2019-04-21T21:40:40.968Z,101287.20
2019-04-21T21:42:57.371Z,101296.94
2019-04-21T21:45:34.860Z,101295.97
2019-04-21T21:48:18.646Z,101290.19
2019-04-21T21:50:45.903Z,101299.89
2019-04-21T21:53:16.180Z,101298.17
2019-04-21T21:55:44.699Z,101304.70
2019-04-21T21:58:25.276Z,101295.75
2019-04-21T22:00:56.993Z,101295.38
2019-04-21T22:03:31.870Z,101295.38
2019-04-21T22:06:07.285Z,101295.88
2019-04-21T22:08:34.232Z,101291.94
2019-04-21T22:11:07.237Z,101291.94
2019-04-21T22:13:47.669Z,101300.80
2019-04-21T22:16:15.689Z,101300.80
2019-04-21T22:19:07.940Z,101295.88
2019-04-21T22:21:41.286Z,101299.08
2019-04-21T22:24:00.518Z,101299.08
2019-04-21T22:26:27.514Z,101289.99
2019-04-21T22:28:59.543Z,101296.02
2019-04-21T22:31:38.914Z,101299.20
2019-04-21T22:34:12.241Z,101299.20
2019-04-21T22:36:48.474Z,101298.33
2019-04-21T22:39:35.595Z,101303.56
2019-04-21T22:42:00.976Z,101301.84
2019-04-21T22:44:22.865Z,101309.55
2019-04-21T22:47:04.215Z,101307.82
2019-04-21T22:49:28.641Z,101310.84
2019-04-21T22:52:03.947Z,101306.79
2019-04-21T22:54:39.683Z,101309.11
2019-04-21T22:57:16.633Z,101315.11
2019-04-21T22:59:46.343Z,101311.88
2019-04-21T23:02:23.738Z,101310.09
2019-04-21T23:04:56.241Z,101312.66
2019-04-21T23:07:26.680Z,101306.86
2019-04-21T23:09:59.119Z,101303.05
2019-04-21T23:12:36.247Z,101307.81
2019-04-21T23:15:11.789Z,101310.72
2019-04-21T23:18:01.619Z,101307.22
2019-04-21T23:20:32.787Z,101302.39
2019-04-21T23:23:08.340Z,101306.66
2019-04-21T23:25:36.608Z,101303.47
2019-04-21T23:28:09.485Z,101302.88
2019-04-21T23:30:50.285Z,101318.53
2019-04-21T23:33:06.036Z,101312.31
2019-04-21T23:35:38.736Z,101320.21
2019-04-21T23:38:08.665Z,101313.19
2019-04-21T23:40:48.811Z,101310.36
2019-04-21T23:43:19.239Z,101310.73
2019-04-21T23:45:48.711Z,101308.02
2019-04-21T23:48:32.510Z,101308.02
2019-04-21T23:51:10.923Z,101311.22
2019-04-21T23:53:29.247Z,101315.48
2019-04-21T23:56:01.309Z,101313.71
2019-04-21T23:58:36.277Z,101307.27
